Time;durP1;ratioP1;P1;durP2;ratioP2;P2;SDS_P1;SDS_P2;PMS_P1;PMS_P2;Temp;Humidity;BMP_temperature;BMP_pressure;BME280_temperature;BME280_humidity;BME280_pressure;Samples;Min_cycle;Max_cycle;Signal;HPM_P1;HPM_P2
2023/04/03 00:01:40;;;;;;;6.80;3.80;;;;;;;7.33;95.79;98136.00;105471;1259;62056;-22
2023/04/03 00:04:19;;;;;;;5.70;3.90;;;;;;;7.42;95.07;98135.98;105591;1257;75280;-22
2023/04/03 00:06:47;;;;;;;5.40;4.40;;;;;;;7.11;95.07;98136.42;105628;1254;75033;-22
2023/04/03 00:09:19;;;;;;;10.70;3.60;;;;;;;7.04;95.76;98134.92;105472;1257;74268;-22
2023/04/03 00:11:50;;;;;;;4.80;3.30;;;;;;;7.38;94.49;98139.70;105562;1257;61958;-22
2023/04/03 00:21:55;;;;;;;6.00;4.00;;;;;;;7.11;95.11;98148.17;103103;1285;600188;-20
2023/04/03 00:24:24;;;;;;;8.90;4.70;;;;;;;6.94;95.12;98151.56;104821;1265;61633;-22
2023/04/03 00:26:58;;;;;;;6.30;4.30;;;;;;;6.49;95.38;98148.27;104808;1271;61889;-20
2023/04/03 00:29:27;;;;;;;4.70;3.10;;;;;;;6.27;97.32;98155.80;104875;1265;73211;-21
2023/04/03 00:31:56;;;;;;;6.80;4.00;;;;;;;6.54;96.63;98156.95;104884;1266;75774;-21
2023/04/03 00:34:26;;;;;;;9.30;5.20;;;;;;;6.36;95.71;98157.72;103286;1266;2110201;-23
2023/04/03 00:36:55;;;;;;;4.40;3.20;;;;;;;6.07;96.89;98156.50;104835;1263;61719;-23
2023/04/03 00:39:24;;;;;;;6.00;4.50;;;;;;;6.06;96.88;98157.41;104742;1271;61930;-23
2023/04/03 00:41:55;;;;;;;5.10;3.80;;;;;;;5.67;97.94;98160.14;105067;1268;73861;-23
2023/04/03 00:44:28;;;;;;;6.30;4.10;;;;;;;5.82;97.43;98161.60;105090;1265;75779;-23
2023/04/03 00:46:57;;;;;;;6.10;4.40;;;;;;;5.68;96.86;98163.03;104849;1265;73965;-23
2023/04/03 00:49:26;;;;;;;5.80;3.90;;;;;;;5.53;97.37;98166.55;105131;1263;61844;-20
2023/04/03 00:51:54;;;;;;;4.00;3.10;;;;;;;5.19;98.44;98166.46;105231;1262;61837;-20
2023/04/03 00:54:23;;;;;;;6.70;3.80;;;;;;;5.28;98.47;98169.73;105199;1260;74569;-20
2023/04/03 00:56:51;;;;;;;6.10;4.60;;;;;;;5.30;98.02;98170.96;105050;1262;75808;-22
2023/04/03 00:59:25;;;;;;;6.30;4.40;;;;;;;5.13;98.28;98170.98;105618;1253;74288;-21
2023/04/03 01:01:56;;;;;;;5.10;4.00;;;;;;;4.92;99.51;98169.77;105479;1259;62411;-21
2023/04/03 01:04:39;;;;;;;5.20;4.10;;;;;;;5.20;98.43;98179.61;105496;1258;61154;-21
2023/04/03 01:07:15;;;;;;;4.50;3.50;;;;;;;5.20;97.22;98177.38;105677;1253;74332;-24
2023/04/03 01:09:45;;;;;;;4.70;4.00;;;;;;;5.05;97.29;98174.84;105624;1253;75786;-24
2023/04/03 01:12:13;;;;;;;3.80;3.20;;;;;;;4.94;98.11;98174.63;105733;1253;73188;-23
2023/04/03 01:14:48;;;;;;;4.50;3.80;;;;;;;5.27;97.05;98178.79;105662;1253;61379;-23
2023/04/03 01:17:36;;;;;;;4.00;2.90;;;;;;;5.19;96.30;98179.17;105708;1256;61829;-23
2023/04/03 01:20:35;;;;;;;5.20;3.10;;;;;;;4.77;97.82;98180.27;105702;1253;74560;-24
2023/04/03 01:23:09;;;;;;;4.50;3.20;;;;;;;5.04;97.94;98184.93;105713;1256;75100;-21
2023/04/03 01:25:42;;;;;;;5.80;3.50;;;;;;;5.04;96.53;98184.19;105589;1253;74166;-23
2023/04/03 01:28:12;;;;;;;;;;;;;;;5.14;95.71;98189.48;105674;1253;61709;-23
2023/04/03 01:30:45;;;;;;;4.80;3.00;;;;;;;4.94;96.28;98186.47;105594;1253;61055;-23
2023/04/03 01:33:14;;;;;;;4.40;2.60;;;;;;;4.96;97.02;98186.81;105596;1254;73372;-21
2023/04/03 01:35:43;;;;;;;4.50;2.90;;;;;;;5.15;95.70;98188.94;105706;1253;73649;-21
2023/04/03 01:38:15;;;;;;;5.40;3.20;;;;;;;4.92;95.48;98192.25;105711;1253;74036;-21
2023/04/03 01:40:44;;;;;;;2.90;2.40;;;;;;;4.75;96.25;98196.08;105720;1257;61698;-21
2023/04/03 01:43:13;;;;;;;6.00;4.20;;;;;;;4.88;96.67;98197.73;105717;1253;61668;-22
2023/04/03 01:45:42;;;;;;;5.90;2.80;;;;;;;4.93;95.75;98203.38;105635;1253;74648;-23
2023/04/03 01:48:10;;;;;;;4.20;3.20;;;;;;;5.01;95.26;98203.02;105486;1253;75955;-22
2023/04/03 01:50:39;;;;;;;4.60;3.30;;;;;;;4.61;96.04;98206.89;105608;1253;72970;-23
2023/04/03 01:53:08;;;;;;;3.50;2.50;;;;;;;4.62;97.02;98208.30;105577;1253;63574;-23
2023/04/03 01:55:36;;;;;;;4.20;3.10;;;;;;;4.74;95.84;98204.73;105639;1253;61670;-22
2023/04/03 01:58:05;;;;;;;7.50;3.60;;;;;;;4.60;96.02;98207.97;105566;1253;73422;-23
2023/04/03 02:00:34;;;;;;;4.60;3.60;;;;;;;4.57;96.60;98212.15;105571;1258;74679;-23
2023/04/03 02:03:05;;;;;;;9.50;4.60;;;;;;;4.37;97.41;98214.91;105578;1254;74143;-23
2023/04/03 02:05:33;;;;;;;3.50;2.30;;;;;;;4.42;96.66;98212.98;105544;1253;62484;-23
2023/04/03 02:08:04;;;;;;;7.00;3.50;;;;;;;4.44;95.97;98219.74;105715;1254;61132;-23
2023/04/03 02:10:32;;;;;;;17.00;6.70;;;;;;;4.36;95.97;98215.45;105638;1258;74409;-23
2023/04/03 02:13:01;;;;;;;18.50;6.40;;;;;;;4.29;96.65;98219.71;105555;1253;75838;-22
2023/04/03 02:15:30;;;;;;;10.70;5.80;;;;;;;4.44;96.32;98223.66;105614;1258;74228;-22
2023/04/03 02:17:59;;;;;;;7.90;3.90;;;;;;;4.64;95.33;98222.13;105699;1255;61959;-23
2023/04/03 02:20:28;;;;;;;8.50;4.30;;;;;;;4.60;94.99;98223.44;105698;1258;61327;-23
2023/04/03 02:22:58;;;;;;;3.60;2.20;;;;;;;4.41;95.69;98226.62;105619;1253;74386;-23
2023/04/03 02:25:27;;;;;;;3.90;2.10;;;;;;;4.72;95.60;98228.44;105592;1258;75870;-23
2023/04/03 02:28:02;;;;;;;4.20;2.80;;;;;;;4.66;94.92;98226.08;105618;1253;73963;-23
2023/04/03 02:30:32;;;;;;;3.10;2.30;;;;;;;4.55;95.03;98230.82;105587;1253;61183;-23
2023/04/03 02:33:01;;;;;;;4.00;2.40;;;;;;;4.32;95.99;98232.73;105604;1257;62359;-23
2023/04/03 02:35:32;;;;;;;2.30;1.90;;;;;;;4.20;96.81;98233.39;105602;1257;74841;-23
2023/04/03 02:38:00;;;;;;;2.40;2.00;;;;;;;4.09;96.70;98238.94;105572;1253;75674;-23
2023/04/03 02:40:29;;;;;;;2.50;1.60;;;;;;;4.19;96.25;98240.15;105651;1254;73862;-23
2023/04/03 02:42:57;;;;;;;4.10;2.60;;;;;;;4.11;96.49;98242.93;105694;1254;61630;-23
2023/04/03 02:45:26;;;;;;;3.00;2.10;;;;;;;3.96;96.82;98246.52;105698;1257;61844;-23
2023/04/03 02:47:55;;;;;;;2.70;2.00;;;;;;;4.09;96.56;98247.19;105680;1253;74555;-22
2023/04/03 02:50:24;;;;;;;2.80;1.80;;;;;;;4.17;95.86;98249.24;105620;1253;75716;-23
2023/04/03 02:52:52;;;;;;;3.40;2.30;;;;;;;4.03;96.24;98251.02;105540;1253;74004;-23
2023/04/03 02:55:21;;;;;;;6.60;3.40;;;;;;;4.07;96.12;98252.63;105411;1253;61762;-23
2023/04/03 02:57:50;;;;;;;6.30;3.60;;;;;;;4.20;95.56;98254.35;105598;1258;62070;-23
2023/04/03 03:00:20;;;;;;;4.30;1.90;;;;;;;4.48;93.76;98254.68;105543;1253;74516;-23
2023/04/03 03:02:49;;;;;;;2.40;1.50;;;;;;;4.43;92.92;98252.42;105583;1253;75661;-23
2023/04/03 03:05:17;;;;;;;1.80;1.20;;;;;;;4.24;93.47;98255.45;105658;1256;73824;-23
2023/04/03 03:07:47;;;;;;;2.20;1.40;;;;;;;4.01;94.97;98259.23;105672;1257;63566;-24
2023/04/03 03:10:16;;;;;;;1.20;0.90;;;;;;;4.54;93.40;98259.23;105563;1253;61133;-23
2023/04/03 03:12:46;;;;;;;1.00;0.90;;;;;;;4.29;92.04;98256.81;105452;1253;72175;-23
2023/04/03 03:15:15;;;;;;;2.00;1.00;;;;;;;4.30;92.73;98262.40;105672;1253;75985;-23
2023/04/03 03:17:44;;;;;;;2.70;1.40;;;;;;;3.97;93.81;98259.27;105543;1253;74238;-23
2023/04/03 03:20:15;;;;;;;0.70;0.60;;;;;;;3.98;94.19;98262.48;105649;1258;63588;-23
2023/04/03 03:22:44;;;;;;;1.30;0.80;;;;;;;4.19;92.84;98259.18;105553;1253;61210;-23
2023/04/03 03:25:13;;;;;;;1.10;0.70;;;;;;;4.31;92.49;98258.20;105745;1253;74627;-23
2023/04/03 03:27:43;;;;;;;0.80;0.70;;;;;;;4.14;92.76;98259.04;105716;1254;75670;-23
2023/04/03 03:30:12;;;;;;;0.80;0.60;;;;;;;3.75;94.14;98258.52;105689;1253;73427;-23
2023/04/03 03:32:41;;;;;;;1.70;0.50;;;;;;;3.86;94.48;98262.08;105743;1253;61761;-23
2023/04/03 03:35:10;;;;;;;1.40;0.80;;;;;;;3.96;93.30;98265.34;105586;1257;61600;-23
2023/04/03 03:37:38;;;;;;;0.60;0.60;;;;;;;3.75;93.75;98265.40;105661;1258;74571;-24
2023/04/03 03:40:08;;;;;;;0.50;0.50;;;;;;;3.68;94.28;98269.07;105581;1253;75717;-23
2023/04/03 03:42:38;;;;;;;1.60;0.70;;;;;;;3.63;94.71;98274.21;105506;1254;73151;-23
2023/04/03 03:45:08;;;;;;;0.90;0.70;;;;;;;3.76;94.02;98272.31;105667;1254;61913;-23
2023/04/03 03:47:37;;;;;;;1.50;1.00;;;;;;;3.92;92.80;98274.92;105556;1253;61174;-23
2023/04/03 03:50:06;;;;;;;0.80;0.70;;;;;;;3.77;92.74;98280.89;105666;1253;74819;-23
2023/04/03 03:52:35;;;;;;;1.10;1.00;;;;;;;3.68;93.23;98285.73;105679;1253;75447;-23
2023/04/03 03:55:04;;;;;;;0.90;0.70;;;;;;;3.98;92.89;98291.85;105506;1253;74180;-22
2023/04/03 03:57:34;;;;;;;1.40;1.00;;;;;;;4.05;92.18;98291.21;105465;1258;61126;-23
2023/04/03 04:00:05;;;;;;;3.00;0.60;;;;;;;3.74;92.99;98286.08;105570;1254;61843;-21
2023/04/03 04:02:46;;;;;;;0.40;0.40;;;;;;;3.59;93.99;98289.27;105591;1253;73737;-21
2023/04/03 04:05:17;;;;;;;1.30;0.60;;;;;;;3.78;93.98;98287.48;105650;1253;74560;-21
2023/04/03 04:07:46;;;;;;;2.90;0.90;;;;;;;4.09;92.72;98288.02;105665;1254;74170;-21
2023/04/03 04:10:15;;;;;;;1.30;1.00;;;;;;;3.97;92.93;98292.83;105706;1253;61705;-22
2023/04/03 04:12:44;;;;;;;1.90;1.10;;;;;;;3.82;93.75;98296.48;105755;1254;61068;-23
2023/04/03 04:15:14;;;;;;;1.30;0.90;;;;;;;3.83;93.69;98299.05;105689;1257;73507;-23
2023/04/03 04:17:45;;;;;;;0.90;0.80;;;;;;;4.14;92.41;98301.45;105698;1253;75528;-21
2023/04/03 04:20:13;;;;;;;1.30;0.70;;;;;;;4.05;91.91;98304.96;105539;1253;74154;-23
2023/04/03 04:22:43;;;;;;;2.30;1.40;;;;;;;3.73;92.25;98300.48;105525;1253;61639;-23
2023/04/03 04:25:12;;;;;;;1.10;0.70;;;;;;;3.65;93.14;98301.71;105720;1258;61857;-23
2023/04/03 04:27:42;;;;;;;1.10;0.80;;;;;;;3.75;93.25;98302.97;105710;1253;74337;-23
2023/04/03 04:30:13;;;;;;;1.10;0.90;;;;;;;4.02;91.95;98305.36;105719;1258;75844;-23
2023/04/03 04:32:43;;;;;;;1.70;1.00;;;;;;;3.67;92.46;98307.61;105645;1253;73209;-23
2023/04/03 04:35:12;;;;;;;1.30;1.00;;;;;;;3.46;93.40;98306.40;105656;1253;61896;-23
2023/04/03 04:37:44;;;;;;;1.50;1.10;;;;;;;3.37;94.08;98306.79;105547;1253;61919;-22
2023/04/03 04:40:13;;;;;;;0.90;0.90;;;;;;;3.54;93.53;98310.01;105721;1253;75226;-22
2023/04/03 04:42:42;;;;;;;1.00;0.90;;;;;;;3.66;92.57;98313.98;105719;1253;75738;-22
2023/04/03 04:45:12;;;;;;;0.90;0.80;;;;;;;3.59;92.77;98311.70;105697;1257;74125;-22
2023/04/03 04:47:42;;;;;;;0.80;0.60;;;;;;;3.52;93.38;98315.98;105668;1257;61100;-22
2023/04/03 04:50:12;;;;;;;0.90;0.70;;;;;;;3.80;93.19;98316.23;105681;1258;61730;-22
2023/04/03 04:52:42;;;;;;;0.70;0.60;;;;;;;3.87;91.89;98317.35;105777;1253;75617;-22
2023/04/03 04:55:11;;;;;;;1.80;0.90;;;;;;;3.66;91.98;98319.02;105712;1253;75824;-22
2023/04/03 04:57:41;;;;;;;0.70;0.60;;;;;;;3.56;93.08;98324.63;105687;1253;74009;-22
2023/04/03 05:00:11;;;;;;;1.20;0.70;;;;;;;3.27;93.36;98325.75;105678;1254;61757;-22
2023/04/03 05:02:40;;;;;;;2.60;0.90;;;;;;;3.31;93.08;98328.59;105653;1260;61576;-22
2023/04/03 05:05:09;;;;;;;1.60;0.90;;;;;;;3.32;92.33;98331.45;105692;1253;75391;-22
2023/04/03 05:07:38;;;;;;;1.50;1.10;;;;;;;3.28;92.57;98331.35;105711;1253;74804;-22
2023/04/03 05:10:09;;;;;;;2.40;1.50;;;;;;;3.07;93.41;98340.88;105667;1253;74212;-22
2023/04/03 05:12:37;;;;;;;1.70;1.30;;;;;;;2.96;94.35;98340.86;105529;1256;62516;-22
2023/04/03 05:15:07;;;;;;;2.70;1.40;;;;;;;3.05;92.62;98336.19;105716;1258;61824;-22
2023/04/03 05:17:35;;;;;;;1.90;1.30;;;;;;;3.03;91.60;98337.38;105543;1253;75389;-22
2023/04/03 05:20:06;;;;;;;3.60;1.40;;;;;;;2.83;91.87;98346.29;105692;1257;75689;-22
2023/04/03 05:22:35;;;;;;;1.80;1.10;;;;;;;2.78;92.19;98345.41;105213;1261;73095;-22
2023/04/03 05:25:07;;;;;;;1.40;0.90;;;;;;;2.63;92.48;98347.48;105549;1254;62973;-22
2023/04/03 05:27:36;;;;;;;1.50;1.00;;;;;;;3.05;92.03;98355.73;105399;1260;61860;-23
2023/04/03 05:30:06;;;;;;;3.00;1.30;;;;;;;2.89;92.11;98356.03;105733;1257;75301;-22
2023/04/03 05:32:35;;;;;;;6.90;3.80;;;;;;;2.78;93.15;98355.83;105688;1253;74884;-22
2023/04/03 05:35:13;;;;;;;2.20;1.10;;;;;;;2.71;94.40;98358.30;105706;1253;74173;-22
2023/04/03 05:37:44;;;;;;;2.20;1.20;;;;;;;3.02;93.75;98366.59;105481;1253;61604;-23
2023/04/03 05:40:13;;;;;;;2.30;1.10;;;;;;;3.15;92.87;98367.52;105442;1259;61857;-22
2023/04/03 05:42:45;;;;;;;4.50;2.30;;;;;;;2.86;93.12;98367.90;105651;1258;74466;-22
2023/04/03 05:45:14;;;;;;;2.20;1.00;;;;;;;2.65;94.03;98370.86;105727;1253;75682;-22
2023/04/03 05:47:42;;;;;;;6.10;3.60;;;;;;;2.59;93.84;98371.89;105683;1253;73185;-22
2023/04/03 05:50:12;;;;;;;1.70;1.20;;;;;;;2.70;92.97;98368.79;105774;1253;61887;-22
2023/04/03 05:52:43;;;;;;;2.80;1.40;;;;;;;2.63;92.39;98375.09;105665;1258;61863;-23
2023/04/03 05:55:12;;;;;;;89.80;51.30;;;;;;;2.41;93.10;98377.39;105676;1253;75328;-22
2023/04/03 05:57:42;;;;;;;3.70;1.60;;;;;;;2.32;93.68;98379.61;105565;1253;75819;-23
2023/04/03 06:00:15;;;;;;;22.40;16.40;;;;;;;2.50;92.48;98379.44;105599;1257;73947;-22
2023/04/03 06:02:48;;;;;;;2.90;2.30;;;;;;;2.57;91.23;98383.48;105652;1253;61757;-23
2023/04/03 06:05:20;;;;;;;32.80;18.80;;;;;;;2.53;91.81;98384.56;105733;1258;62005;-23
2023/04/03 06:07:49;;;;;;;76.40;39.10;;;;;;;2.37;92.70;98388.09;105670;1253;75407;-22
2023/04/03 06:10:19;;;;;;;18.40;10.30;;;;;;;2.66;92.70;98391.03;105752;1257;75507;-22
2023/04/03 06:12:50;;;;;;;5.40;3.90;;;;;;;2.78;91.32;98385.16;105630;1253;74129;-22
2023/04/03 06:15:18;;;;;;;8.00;5.20;;;;;;;2.64;92.14;98392.52;105609;1253;61344;-23
2023/04/03 06:17:48;;;;;;;11.00;8.70;;;;;;;2.69;92.63;98396.28;105569;1258;61883;-23
2023/04/03 06:20:17;;;;;;;17.40;13.00;;;;;;;2.53;93.52;98395.53;105736;1253;76098;-23
2023/04/03 06:22:46;;;;;;;5.00;3.40;;;;;;;2.73;92.70;98399.83;105740;1258;75625;-22
2023/04/03 06:25:17;;;;;;;4.60;3.70;;;;;;;2.59;91.22;98408.56;105696;1258;74617;-22
2023/04/03 06:27:45;;;;;;;2.80;2.50;;;;;;;2.47;90.91;98413.69;105736;1253;61710;-22
2023/04/03 06:30:14;;;;;;;3.10;2.40;;;;;;;2.24;90.92;98413.17;105776;1257;61853;-23
2023/04/03 06:32:44;;;;;;;1.50;1.20;;;;;;;2.01;90.84;98416.13;105790;1253;75139;-23
2023/04/03 06:35:13;;;;;;;2.50;2.30;;;;;;;2.20;90.68;98417.83;105737;1253;75657;-23
2023/04/03 06:37:42;;;;;;;20.70;14.20;;;;;;;2.08;90.59;98426.52;105366;1253;74220;-23
2023/04/03 06:40:18;;;;;;;11.70;9.10;;;;;;;2.04;91.11;98425.20;105697;1258;61564;-22
2023/04/03 06:42:47;;;;;;;5.70;4.00;;;;;;;1.93;91.60;98429.06;105626;1261;61790;-23
2023/04/03 06:45:18;;;;;;;15.00;9.90;;;;;;;1.97;91.97;98432.13;105774;1253;75156;-23
2023/04/03 06:47:47;;;;;;;16.10;10.80;;;;;;;2.01;91.61;98433.23;105603;1253;75925;-22
2023/04/03 06:50:16;;;;;;;5.70;4.20;;;;;;;2.23;91.17;98437.50;105505;1253;73973;-23
2023/04/03 06:52:46;;;;;;;6.80;5.60;;;;;;;2.21;92.22;98442.27;105714;1257;61235;-24
2023/04/03 06:55:15;;;;;;;9.10;8.30;;;;;;;2.06;92.89;98443.94;105642;1258;62014;-22
2023/04/03 06:57:45;;;;;;;2.50;1.80;;;;;;;2.30;93.50;98447.73;105732;1253;75381;-23
2023/04/03 07:00:55;;;;;;;1.30;1.00;;;;;;;2.59;92.22;98445.41;102706;1292;601054;-23
2023/04/03 07:03:26;;;;;;;2.00;1.40;;;;;;;2.38;92.65;98453.81;105111;1265;61145;-24
2023/04/03 07:05:55;;;;;;;1.50;1.20;;;;;;;2.30;93.33;98458.04;105180;1264;61199;-24
2023/04/03 07:08:25;;;;;;;1.60;1.10;;;;;;;2.45;93.19;98460.80;105136;1270;73683;-24
2023/04/03 07:11:03;;;;;;;3.10;2.30;;;;;;;2.83;91.16;98465.59;105066;1269;75649;-24
2023/04/03 07:13:32;;;;;;;4.10;2.40;;;;;;;2.70;90.54;98464.67;103210;1272;2139643;-23
2023/04/03 07:16:01;;;;;;;1.80;1.20;;;;;;;2.62;90.93;98464.41;104883;1263;61946;-23
2023/04/03 07:18:29;;;;;;;0.40;0.40;;;;;;;2.40;92.29;98469.09;105200;1265;61645;-23
2023/04/03 07:20:58;;;;;;;4.70;1.10;;;;;;;2.70;92.92;98466.02;105068;1269;73023;-21
2023/04/03 07:23:27;;;;;;;1.70;1.00;;;;;;;2.74;91.94;98470.90;105269;1268;74726;-21
2023/04/03 07:25:56;;;;;;;0.80;0.60;;;;;;;2.55;92.15;98473.02;105219;1267;74217;-21
2023/04/03 07:28:25;;;;;;;1.20;0.90;;;;;;;2.37;92.90;98473.02;105036;1263;61999;-22
2023/04/03 07:31:13;;;;;;;1.50;1.10;;;;;;;2.18;93.32;98478.54;105003;1262;61173;-22
2023/04/03 07:33:42;;;;;;;1.80;1.60;;;;;;;2.33;92.35;98478.41;104952;1269;73644;-22
2023/04/03 07:36:15;;;;;;;2.60;1.90;;;;;;;2.40;92.40;98486.05;105054;1269;76390;-22
2023/04/03 07:38:44;;;;;;;1.40;1.30;;;;;;;2.55;92.37;98487.48;105079;1264;74229;-22
2023/04/03 07:41:18;;;;;;;1.10;0.90;;;;;;;2.35;93.58;98484.44;105130;1263;61148;-22
2023/04/03 07:43:49;;;;;;;0.90;0.80;;;;;;;2.44;92.78;98484.98;104985;1268;61674;-22
2023/04/03 07:46:18;;;;;;;1.90;1.50;;;;;;;2.74;91.66;98486.71;105174;1264;74608;-23
2023/04/03 07:48:48;;;;;;;3.60;2.60;;;;;;;2.79;91.68;98490.02;105205;1267;76787;-22
2023/04/03 07:51:16;;;;;;;1.10;1.00;;;;;;;2.49;92.35;98491.02;105192;1267;73806;-23
2023/04/03 07:53:45;;;;;;;1.20;0.80;;;;;;;2.39;93.23;98495.88;104996;1273;61573;-23
2023/04/03 07:56:14;;;;;;;1.50;0.90;;;;;;;2.50;92.55;98500.09;105018;1269;61722;-23
2023/04/03 07:58:43;;;;;;;1.80;1.20;;;;;;;2.79;91.40;98503.89;105188;1264;74997;-23
2023/04/03 08:01:13;;;;;;;4.30;2.30;;;;;;;2.62;92.05;98508.63;104938;1270;75858;-22
2023/04/03 08:03:43;;;;;;;2.20;1.60;;;;;;;2.50;91.65;98511.02;105191;1266;74264;-23
2023/04/03 08:06:14;;;;;;;2.20;1.30;;;;;;;2.20;92.81;98511.33;105247;1264;62948;-22
2023/04/03 08:08:47;;;;;;;4.80;2.00;;;;;;;2.40;91.00;98511.60;105969;1257;61969;-22
2023/04/03 08:11:18;;;;;;;8.70;4.40;;;;;;;2.39;90.01;98513.53;105864;1255;74155;-22
2023/04/03 08:13:47;;;;;;;2.60;1.70;;;;;;;2.33;90.54;98519.52;105965;1257;75868;-22
2023/04/03 08:16:17;;;;;;;1.70;1.20;;;;;;;2.10;90.97;98521.79;105761;1253;74201;-22
2023/04/03 08:18:45;;;;;;;2.40;1.20;;;;;;;1.84;92.54;98524.74;105715;1253;62682;-22
2023/04/03 08:21:14;;;;;;;3.00;1.90;;;;;;;2.12;92.02;98532.34;105917;1256;61930;-23
2023/04/03 08:23:44;;;;;;;7.90;5.00;;;;;;;2.47;91.26;98532.25;105936;1254;74716;-22
2023/04/03 08:26:17;;;;;;;1.50;0.90;;;;;;;2.21;91.13;98535.06;105954;1257;75785;-22
2023/04/03 08:28:47;;;;;;;;;;;;;;;2.12;92.78;98541.06;105714;1257;74201;-23
2023/04/03 08:31:18;;;;;;;6.50;3.40;;;;;;;2.29;91.82;98540.78;105757;1260;61172;-22
2023/04/03 08:33:47;;;;;;;3.30;2.00;;;;;;;2.55;90.05;98540.95;105682;1254;61834;-22
2023/04/03 08:36:20;;;;;;;14.90;8.10;;;;;;;2.44;89.84;98549.08;105700;1254;74887;-22
2023/04/03 08:38:50;;;;;;;2.60;1.80;;;;;;;2.40;90.97;98554.45;105729;1257;75966;-22
2023/04/03 08:41:30;;;;;;;6.30;3.40;;;;;;;2.32;91.85;98560.69;105721;1257;74231;-23
2023/04/03 08:44:16;;;;;;;8.60;4.30;;;;;;;2.49;91.40;98561.46;105874;1255;61110;-23
2023/04/03 08:47:06;;;;;;;6.20;3.40;;;;;;;2.71;90.32;98556.65;105883;1257;61870;-22
2023/04/03 08:49:47;;;;;;;4.00;2.20;;;;;;;2.72;90.54;98558.66;105931;1254;74446;-23
2023/04/03 08:52:18;;;;;;;14.80;6.90;;;;;;;2.54;90.79;98560.67;105718;1254;75789;-23
2023/04/03 08:54:52;;;;;;;3.00;1.50;;;;;;;2.24;90.47;98561.15;105683;1258;74215;-22
2023/04/03 08:57:42;;;;;;;1.60;0.70;;;;;;;2.38;90.57;98563.08;105671;1256;61831;-22
2023/04/03 09:00:14;;;;;;;1.90;1.20;;;;;;;2.34;90.01;98565.56;105755;1257;61133;-22
2023/04/03 09:02:47;;;;;;;1.00;0.70;;;;;;;2.18;90.90;98568.48;105711;1257;74384;-23
2023/04/03 09:05:20;;;;;;;0.80;0.50;;;;;;;1.90;92.62;98571.50;105735;1254;74951;-23
2023/04/03 09:08:15;;;;;;;5.40;1.00;;;;;;;2.17;93.41;98570.24;105716;1259;74063;-23
2023/04/03 09:10:44;;;;;;;0.80;0.80;;;;;;;2.50;92.27;98571.49;105861;1257;63104;-22
2023/04/03 09:13:20;;;;;;;28.60;16.50;;;;;;;2.35;91.46;98573.20;105844;1252;61039;-22
2023/04/03 09:15:54;;;;;;;2.20;1.40;;;;;;;2.21;92.41;98577.40;105663;1254;74573;-22
2023/04/03 09:18:30;;;;;;;3.40;2.60;;;;;;;2.07;93.29;98577.45;105661;1260;74399;-23
2023/04/03 09:21:31;;;;;;;30.30;18.90;;;;;;;2.42;91.96;98584.96;105677;1254;74234;-22
2023/04/03 09:23:59;;;;;;;10.70;6.00;;;;;;;2.26;89.74;98582.45;105692;1254;62029;-23
2023/04/03 09:26:51;;;;;;;12.60;6.70;;;;;;;2.25;90.08;98587.61;105701;1257;61892;-22
2023/04/03 09:29:22;;;;;;;13.00;6.90;;;;;;;2.21;90.39;98587.49;105735;1252;73631;-23
2023/04/03 09:32:01;;;;;;;29.60;14.10;;;;;;;2.55;90.38;98585.48;105698;1259;75853;-23
2023/04/03 09:34:35;;;;;;;9.00;5.80;;;;;;;2.76;89.20;98583.59;105681;1258;73175;-22
2023/04/03 09:37:08;;;;;;;6.70;3.60;;;;;;;2.82;88.32;98585.17;105550;1254;61684;-23
2023/04/03 09:39:54;;;;;;;2.70;1.60;;;;;;;2.63;89.52;98588.25;105604;1256;61734;-23
2023/04/03 09:42:25;;;;;;;4.30;2.60;;;;;;;2.44;91.66;98594.29;105616;1254;74494;-23
2023/04/03 09:44:58;;;;;;;1.90;1.50;;;;;;;2.85;90.48;98595.45;105701;1257;75874;-23
2023/04/03 09:47:33;;;;;;;3.20;1.30;;;;;;;2.76;89.73;98596.82;105697;1260;72171;-23
2023/04/03 09:50:14;;;;;;;2.30;1.40;;;;;;;2.82;90.61;98605.21;105688;1257;61158;-23
2023/04/03 09:52:45;;;;;;;3.70;1.90;;;;;;;2.70;89.31;98606.79;105858;1257;62142;-23
2023/04/03 09:55:16;;;;;;;1.20;1.10;;;;;;;2.33;89.86;98610.99;105593;1254;74616;-23
2023/04/03 09:57:52;;;;;;;1.00;0.80;;;;;;;2.06;91.92;98611.92;105695;1254;75848;-23
2023/04/03 10:00:26;;;;;;;1.40;1.00;;;;;;;2.30;91.94;98622.98;105650;1254;73387;-23
2023/04/03 10:02:56;;;;;;;1.40;0.90;;;;;;;2.21;91.46;98621.75;105631;1257;61110;-24
2023/04/03 10:05:30;;;;;;;1.30;1.00;;;;;;;2.00;92.95;98625.92;105710;1254;61104;-23
2023/04/03 10:08:13;;;;;;;1.20;1.00;;;;;;;1.82;93.17;98630.46;105538;1259;74486;-24
2023/04/03 10:10:45;;;;;;;1.50;1.20;;;;;;;2.00;91.83;98630.26;105762;1253;75882;-24
2023/04/03 10:13:16;;;;;;;2.20;1.40;;;;;;;2.21;90.66;98631.15;105709;1260;74333;-24
2023/04/03 10:16:06;;;;;;;2.40;1.90;;;;;;;2.05;91.57;98638.02;105602;1254;61890;-23
2023/04/03 10:18:47;;;;;;;24.80;15.00;;;;;;;2.06;91.70;98639.82;105666;1260;61898;-23
2023/04/03 10:21:25;;;;;;;3.80;2.60;;;;;;;2.28;90.87;98644.17;105692;1254;74586;-23
2023/04/03 10:24:19;;;;;;;21.10;11.40;;;;;;;2.56;89.52;98646.09;105619;1257;75823;-23
2023/04/03 10:26:59;;;;;;;21.70;12.40;;;;;;;2.47;87.95;98645.69;105528;1254;74347;-23
2023/04/03 10:29:49;;;;;;;22.40;9.60;;;;;;;2.09;89.07;98654.77;105532;1259;61191;-24
2023/04/03 10:32:37;;;;;;;12.50;6.90;;;;;;;2.16;90.99;98658.85;105677;1257;61876;-23
2023/04/03 10:35:07;;;;;;;1.10;0.90;;;;;;;2.47;89.65;98655.64;105546;1254;73745;-23
2023/04/03 10:37:41;;;;;;;3.40;1.50;;;;;;;2.29;90.40;98662.27;105623;1257;75910;-23
2023/04/03 10:40:34;;;;;;;2.20;1.40;;;;;;;1.99;91.40;98665.89;105868;1254;73302;-22
2023/04/03 10:43:34;;;;;;;1.60;1.50;;;;;;;2.01;92.11;98671.94;105626;1254;61046;-23
2023/04/03 10:46:25;;;;;;;1.50;1.20;;;;;;;1.92;93.22;98677.04;105777;1254;61267;-23
2023/04/03 10:49:14;;;;;;;2.30;1.60;;;;;;;2.11;90.88;98676.02;105725;1254;74522;-23
2023/04/03 10:51:47;;;;;;;3.10;2.50;;;;;;;2.01;90.67;98678.98;105807;1254;75836;-23
2023/04/03 10:54:20;;;;;;;8.20;5.10;;;;;;;1.93;89.73;98681.27;105671;1254;74211;-23
2023/04/03 10:57:06;;;;;;;3.70;2.30;;;;;;;1.80;90.65;98682.60;105483;1253;61118;-23
2023/04/03 10:59:58;;;;;;;2.80;1.90;;;;;;;2.18;89.12;98686.98;105647;1255;61588;-23
2023/04/03 11:02:31;;;;;;;23.00;12.00;;;;;;;2.37;87.15;98691.14;105683;1254;74359;-24
2023/04/03 11:05:02;;;;;;;23.80;12.60;;;;;;;2.34;85.74;98690.44;105714;1257;75855;-24
2023/04/03 11:07:43;;;;;;;14.80;7.70;;;;;;;2.09;85.44;98690.02;105656;1253;74163;-24
2023/04/03 11:10:14;;;;;;;7.60;4.20;;;;;;;2.00;86.93;98683.32;105523;1253;61099;-24
2023/04/03 11:12:48;;;;;;;19.50;11.50;;;;;;;2.09;86.56;98686.95;105650;1257;61787;-24
2023/04/03 11:15:20;;;;;;;2.20;1.40;;;;;;;2.25;86.35;98685.60;105700;1253;74556;-24
2023/04/03 11:17:54;;;;;;;2.10;1.80;;;;;;;2.08;86.98;98687.00;105685;1252;75515;-24
2023/04/03 11:20:27;;;;;;;2.90;1.80;;;;;;;1.81;88.03;98683.56;105470;1254;74561;-24
2023/04/03 11:23:29;;;;;;;2.80;1.70;;;;;;;1.83;88.32;98686.58;105486;1253;61591;-24
2023/04/03 11:26:14;;;;;;;2.50;1.70;;;;;;;1.87;87.51;98689.27;105741;1257;61596;-24
2023/04/03 11:28:43;;;;;;;2.10;1.70;;;;;;;2.09;86.55;98693.63;105682;1253;75413;-24
2023/04/03 11:31:12;;;;;;;3.80;3.00;;;;;;;2.11;86.82;98692.66;105891;1253;75521;-24
2023/04/03 11:33:54;;;;;;;6.30;4.60;;;;;;;2.13;86.59;98694.95;105674;1254;74208;-24
2023/04/03 11:36:50;;;;;;;8.60;5.50;;;;;;;1.92;86.27;98694.83;105656;1253;62535;-24
2023/04/03 11:39:26;;;;;;;2.70;2.00;;;;;;;2.28;85.33;98699.32;105645;1255;61538;-24
2023/04/03 11:41:55;;;;;;;3.20;1.60;;;;;;;2.35;84.33;98699.29;105669;1254;75328;-24
2023/04/03 11:44:38;;;;;;;3.60;2.00;;;;;;;2.31;85.01;98701.20;105874;1256;76256;-24
2023/04/03 11:47:07;;;;;;;3.90;1.50;;;;;;;2.09;86.31;98697.38;105713;1253;74293;-24
2023/04/03 11:49:59;;;;;;;5.40;2.50;;;;;;;1.89;85.79;98693.42;105589;1253;63459;-24
2023/04/03 11:52:38;;;;;;;1.90;1.20;;;;;;;2.16;84.94;98698.23;105687;1253;61053;-24
2023/04/03 11:55:21;;;;;;;2.40;1.20;;;;;;;2.12;85.20;98696.21;105752;1254;75385;-24
2023/04/03 11:57:59;;;;;;;4.00;1.90;;;;;;;1.85;86.67;98699.29;105701;1253;75847;-24
2023/04/03 12:00:46;;;;;;;1.20;1.10;;;;;;;1.53;88.17;98701.05;105632;1252;72539;-24
2023/04/03 12:06:06;;;;;;;1.80;1.40;;;;;;;1.88;87.29;98705.46;105798;1257;61161;-24
2023/04/03 12:08:40;;;;;;;4.30;2.00;;;;;;;2.17;86.58;98708.27;105712;1257;75019;-24